HomeShort term forecast

Short term forecast

Graphical weather forecast for the next 48 hours for Montreal:
Short term forecast
This weather forecast is automatically refreshed every 3 hours.

Hourly Experimental Forecast for the next 48 hours

Overall summary: Rain starting later this afternoon, continuing until tomorrow afternoon.

 Date & Hour   Temp   Feel   Baro   Hum   Speed & Bearing   Precipitation   Visibility   Cloud cover   Conditions 
 25/04/2018 - 15:00  12.6°C  12.6°C  1011.9 hPa  87%  16.0 km/h   0.40 mm/h  16.1km  54%  Partly Cloudy 
 25/04/2018 - 16:00  12.5°C  12.5°C  1011.2 hPa  89%  15.3 km/h   1.18 mm/h  16.1km  85%  Light Rain 
 25/04/2018 - 17:00  12.4°C  12.4°C  1010.2 hPa  91%  15.2 km/h   1.85 mm/h  12.5km  99%  Rain 
 25/04/2018 - 18:00  12.6°C  12.6°C  1009.3 hPa  90%  14.5 km/h   2.13 mm/h  10.8km  97%  Rain 
 25/04/2018 - 19:00  12.6°C  12.6°C  1008.4 hPa  90%  13.3 km/h   2.32 mm/h  7.3km  93%  Rain 
 25/04/2018 - 20:00  12.3°C  12.3°C  1007.4 hPa  92%  12.7 km/h   2.16 mm/h  6.4km  88%  Rain 
 25/04/2018 - 21:00  11.8°C  11.8°C  1006.6 hPa  94%  12.7 km/h   1.48 mm/h  8.7km  89%  Rain 
 25/04/2018 - 22:00  11.3°C  11.3°C  1005.8 hPa  96%  11.7 km/h   1.25 mm/h  11.3km  92%  Light Rain 
 25/04/2018 - 23:00  11.0°C  11.0°C  1005.1 hPa  97%  11.6 km/h   0.78 mm/h  14.2km  90%  Light Rain 
 26/04/2018 - 00:00  10.8°C  10.8°C  1004.2 hPa  97%  10.8 km/h   0.72 mm/h  14.0km  92%  Light Rain 
 26/04/2018 - 01:00  10.9°C  10.9°C  1003.1 hPa  96%  10.2 km/h   0.24 mm/h  13.9km  92%  Mostly Cloudy 
 26/04/2018 - 02:00  11.1°C  11.1°C  1002.1 hPa  93%  10.0 km/h   0.14 mm/h  13.0km  96%  Overcast 
 26/04/2018 - 03:00  11.0°C  11.0°C  1001.2 hPa  91%  9.2 km/h   0.18 mm/h  16.1km  100%  Overcast 
 26/04/2018 - 04:00  10.8°C  10.8°C  1000.5 hPa  91%  7.7 km/h   0.34 mm/h  11.8km  100%  Overcast 
 26/04/2018 - 05:00  10.4°C  10.4°C  999.9 hPa  93%  6.9 km/h   0.60 mm/h  7.4km  100%  Overcast 
 26/04/2018 - 06:00  9.8°C  9.1°C  999.4 hPa  95%  6.9 km/h   1.03 mm/h  4.8km  100%  Light Rain 
 26/04/2018 - 07:00  9.4°C  8.5°C  999.1 hPa  97%  7.3 km/h   1.73 mm/h  3.4km  100%  Rain 
 26/04/2018 - 08:00  9.4°C  8.2°C  998.9 hPa  96%  8.4 km/h   2.17 mm/h  4.5km  100%  Rain 
 26/04/2018 - 09:00  9.7°C  8.1°C  999.0 hPa  93%  10.9 km/h   1.84 mm/h  10.3km  100%  Rain 
 26/04/2018 - 10:00  9.9°C  7.9°C  999.3 hPa  91%  13.6 km/h   1.49 mm/h  16.1km  100%  Rain 
 26/04/2018 - 11:00  9.9°C  7.7°C  999.6 hPa  90%  16.0 km/h   1.38 mm/h  16.1km  100%  Rain 
 26/04/2018 - 12:00  9.1°C  6.5°C  999.7 hPa  93%  17.8 km/h   1.04 mm/h  16.1km  100%  Light Rain 
 26/04/2018 - 13:00  8.2°C  5.2°C  999.9 hPa  97%  19.6 km/h   0.69 mm/h  16.1km  100%  Light Rain 
 26/04/2018 - 14:00  7.5°C  4.1°C  1000.2 hPa  100%  21.0 km/h   0.58 mm/h  14.4km  100%  Overcast 
 26/04/2018 - 15:00  7.5°C  4.0°C  1000.7 hPa  100%  21.7 km/h   0.58 mm/h  16.1km  100%  Overcast 
 26/04/2018 - 16:00  7.9°C  4.6°C  1001.3 hPa  99%  22.1 km/h   0.67 mm/h  16.1km  100%  Overcast 
 26/04/2018 - 17:00  8.9°C  5.8°C  1002.1 hPa  94%  22.1 km/h   0.71 mm/h  16.1km  100%  Light Rain 
 26/04/2018 - 18:00  9.6°C  6.8°C  1003.1 hPa  89%  21.1 km/h   0.51 mm/h  16.1km  91%  Mostly Cloudy 
 26/04/2018 - 19:00  10.1°C  10.1°C  1004.3 hPa  86%  20.1 km/h   0.29 mm/h  16.1km  78%  Mostly Cloudy 
 26/04/2018 - 20:00  10.0°C  10.0°C  1005.4 hPa  85%  19.1 km/h   0.16 mm/h  16.1km  68%  Mostly Cloudy 
 26/04/2018 - 21:00  9.5°C  7.0°C  1006.5 hPa  86%  18.1 km/h   0.07 mm/h  16.1km  62%  Mostly Cloudy 
 26/04/2018 - 22:00  8.9°C  6.2°C  1007.5 hPa  88%  17.2 km/h   0.01 mm/h  16.1km  53%  Partly Cloudy 
 26/04/2018 - 23:00  8.3°C  5.7°C  1008.2 hPa  88%  16.2 km/h   --  16.1km  46%  Partly Cloudy 
 27/04/2018 - 00:00  7.8°C  5.3°C  1008.6 hPa  88%  14.3 km/h   --  16.1km  40%  Partly Cloudy 
 27/04/2018 - 01:00  7.4°C  5.2°C  1008.8 hPa  86%  12.3 km/h   --  16.1km  35%  Partly Cloudy 
 27/04/2018 - 02:00  7.0°C  5.0°C  1008.9 hPa  85%  10.8 km/h   --  16.1km  35%  Partly Cloudy 
 27/04/2018 - 03:00  6.5°C  4.5°C  1009.2 hPa  84%  10.0 km/h   --  16.1km  50%  Partly Cloudy 
 27/04/2018 - 04:00  5.4°C  3.3°C  1009.5 hPa  87%  9.7 km/h   0.01 mm/h  16.1km  73%  Mostly Cloudy 
 27/04/2018 - 05:00  4.5°C  2.2°C  1009.8 hPa  90%  9.4 km/h   0.01 mm/h  16.1km  91%  Mostly Cloudy 
 27/04/2018 - 06:00  4.0°C  1.7°C  1010.2 hPa  93%  8.9 km/h   0.01 mm/h  16.1km  95%  Overcast 
 27/04/2018 - 07:00  4.2°C  2.1°C  1010.7 hPa  93%  8.3 km/h   0.01 mm/h  16.1km  96%  Overcast 
 27/04/2018 - 08:00  5.2°C  3.4°C  1011.0 hPa  88%  7.8 km/h   0.01 mm/h  16.1km  96%  Overcast 
 27/04/2018 - 09:00  7.2°C  5.9°C  1011.0 hPa  79%  7.5 km/h   --  16.1km  98%  Overcast 
 27/04/2018 - 10:00  9.4°C  8.5°C  1010.7 hPa  71%  7.4 km/h   --  16.1km  99%  Overcast 
 27/04/2018 - 11:00  11.4°C  11.4°C  1010.4 hPa  65%  7.4 km/h   --  16.1km  100%  Overcast 
 27/04/2018 - 12:00  12.6°C  12.6°C  1009.9 hPa  62%  7.6 km/h   --  16.1km  100%  Overcast 
 27/04/2018 - 13:00  13.4°C  13.4°C  1009.2 hPa  61%  7.9 km/h   --  16.1km  100%  Overcast 
 27/04/2018 - 14:00  13.9°C  13.9°C  1008.5 hPa  60%  8.1 km/h   0.01 mm/h  16.1km  100%  Overcast 
Test

 

Past weather and reports

Past weatherFind in this section the past weather conditions, weather archive, graphics, reports and statistics.

Current conditions

Current weather condition for MontrealAll you need to know about the current weather conditions for Montreal. Weather data is updated every 10 minutes.

Weather forecast

Current Montreal weatherSince 2004, celinium.com website has provided accurate weather forecast for Montreal's island.